Terminal Aerodrome Forecast
Issued by NWS

Home | Current Version | Previous Version | Text Only | Print | Product List | Glossary On
Versions: 1 2 3 4 5 6 7 8 9 10 11 12 13 14
000
FTUS46 KOTX 291729
TAFMWH
TAF
KMWH 291729Z 2918/3018 34007KT P6SM SCT250
     FM292100 21006KT P6SM BKN250
     FM300600 VRB04KT P6SM VCSH SCT090 BKN150
     FM301400 15004KT P6SM SCT150 BKN200=

USA.gov is the U.S. government's official web portal to all federal, state and local government web resources and services.